Date,TemperatureHighF,TemperatureAvgF,TemperatureLowF,DewpointHighF,DewpointAvgF,DewpointLowF,HumidityHigh,HumidityAvg,HumidityLow,PressureMaxIn,PressureMinIn,WindSpeedMaxMPH,WindSpeedAvgMPH,GustSpeedMaxMPH,PrecipitationSumIn
2013-2-1,27.9,19.4,8.4,16.0,9.2,1.4,76,64,54,30.52,30.17,17,3,17,0.00
2013-2-2,50.5,38.9,27.3,35.6,27.7,15.6,76,64,56,30.24,30.09,18,4,18,0.00
2013-2-3,49.8,41.9,33.3,32.4,26.9,18.9,76,56,38,30.29,29.82,18,5,18,0.00
2013-2-4,49.5,39.1,26.8,31.6,27.9,22.5,89,65,47,29.99,29.77,21,4,21,0.00
2013-2-5,59.4,40.8,24.8,36.0,28.5,21.7,92,65,37,30.10,29.91,13,2,14,0.00
2013-2-6,62.8,48.2,30.4,46.9,35.9,25.9,85,64,45,30.10,29.84,19,4,19,0.00
2013-2-7,54.9,45.2,32.7,47.1,39.4,27.3,95,80,63,30.21,29.83,19,4,20,0.86
2013-2-8,44.2,35.0,30.4,32.7,28.4,25.3,88,77,63,30.36,30.20,13,3,13,0.86
2013-2-9,50.2,38.7,30.4,37.9,32.6,27.3,89,79,56,30.22,29.73,19,6,19,0.01
2013-2-10,50.2,44.5,38.7,45.7,34.7,25.2,95,70,50,29.92,29.45,36,10,36,0.05
2013-2-11,46.9,38.9,32.2,26.8,24.6,22.5,70,57,40,30.18,29.92,24,5,27,0.00
2013-2-12,42.8,35.3,27.0,27.7,24.6,21.9,85,66,48,30.18,29.96,9,1,9,0.00
2013-2-13,56.8,42.6,28.9,29.1,26.2,23.2,80,55,32,29.97,29.80,19,4,20,0.00
2013-2-14,50.4,43.1,35.6,33.4,28.5,23.5,71,57,40,30.19,29.83,22,5,22,0.00
2013-2-15,38.3,30.6,21.2,26.6,17.8,7.9,90,61,37,30.40,30.19,23,5,23,0.00
2013-2-16,36.0,30.1,23.2,24.6,22.0,19.9,89,73,52,30.34,30.07,14,3,14,0.08
2013-2-17,59.2,44.4,28.4,36.7,29.0,19.4,74,55,42,30.07,29.63,18,4,19,0.00
2013-2-18,55.8,44.4,29.8,46.0,32.1,18.0,76,62,45,30.09,29.49,32,9,32,0.00
2013-2-19,36.5,28.5,24.1,18.5,10.9,2.5,73,50,24,30.38,30.09,26,5,26,0.00
2013-2-20,26.4,22.1,16.0,15.1,8.9,3.6,65,56,46,30.41,30.19,12,3,13,0.00
2013-2-21,26.8,24.1,20.7,25.3,20.3,14.5,100,86,65,30.21,29.78,19,4,19,0.00
2013-2-22,28.6,23.7,18.9,23.2,19.5,14.4,93,84,73,30.12,29.81,19,4,19,0.22
2013-2-23,35.6,23.1,9.9,24.3,16.9,6.8,89,78,60,30.11,29.96,12,2,12,0.08
2013-2-24,47.1,32.1,17.2,30.9,23.6,14.7,91,72,51,30.04,29.90,10,2,10,0.03
2013-2-25,37.2,34.7,31.8,33.3,28.3,24.8,93,78,69,29.97,29.69,22,4,22,0.16
2013-2-26,34.2,32.9,31.5,32.2,30.7,29.1,96,91,85,29.88,29.62,21,5,21,0.46
2013-2-27,39.9,33.7,29.5,29.5,27.5,25.5,93,79,61,30.08,29.86,24,7,24,0.28
2013-2-28,34.2,31.9,30.0,28.2,25.6,23.4,80,77,74,30.23,30.07,21,5,21,0.00